sensor_id;sensor_type;location;lat;lon;timestamp;P1;durP1;ratioP1;P2;durP2;ratioP2
72406;SDS011;60396;47.550;18.828;2023-06-19T00:01:12;8.98;;;4.28;;
72406;SDS011;60396;47.550;18.828;2023-06-19T00:03:40;8.95;;;4.00;;
72406;SDS011;60396;47.550;18.828;2023-06-19T00:06:08;9.65;;;4.47;;
72406;SDS011;60396;47.550;18.828;2023-06-19T00:08:36;8.73;;;4.15;;
72406;SDS011;60396;47.550;18.828;2023-06-19T00:11:04;8.37;;;4.20;;
72406;SDS011;60396;47.550;18.828;2023-06-19T00:13:31;8.82;;;4.35;;
72406;SDS011;60396;47.550;18.828;2023-06-19T00:16:00;8.35;;;4.12;;
72406;SDS011;60396;47.550;18.828;2023-06-19T00:18:29;10.95;;;4.57;;
72406;SDS011;60396;47.550;18.828;2023-06-19T00:20:56;7.78;;;4.15;;
72406;SDS011;60396;47.550;18.828;2023-06-19T00:23:24;9.83;;;3.93;;
72406;SDS011;60396;47.550;18.828;2023-06-19T00:25:52;8.63;;;3.80;;
72406;SDS011;60396;47.550;18.828;2023-06-19T00:28:19;8.00;;;3.40;;
72406;SDS011;60396;47.550;18.828;2023-06-19T00:30:48;8.85;;;4.10;;
72406;SDS011;60396;47.550;18.828;2023-06-19T00:33:16;8.23;;;4.07;;
72406;SDS011;60396;47.550;18.828;2023-06-19T00:35:44;8.60;;;4.13;;
72406;SDS011;60396;47.550;18.828;2023-06-19T00:38:12;8.85;;;4.43;;
72406;SDS011;60396;47.550;18.828;2023-06-19T00:40:40;9.35;;;4.18;;
72406;SDS011;60396;47.550;18.828;2023-06-19T00:43:08;8.30;;;3.83;;
72406;SDS011;60396;47.550;18.828;2023-06-19T00:45:37;9.52;;;4.45;;
72406;SDS011;60396;47.550;18.828;2023-06-19T00:48:06;9.07;;;4.07;;
72406;SDS011;60396;47.550;18.828;2023-06-19T00:50:33;8.82;;;4.00;;
72406;SDS011;60396;47.550;18.828;2023-06-19T00:53:01;11.12;;;3.83;;
72406;SDS011;60396;47.550;18.828;2023-06-19T00:55:34;8.68;;;3.80;;
72406;SDS011;60396;47.550;18.828;2023-06-19T00:58:01;8.93;;;3.92;;
72406;SDS011;60396;47.550;18.828;2023-06-19T01:00:30;9.07;;;4.20;;
72406;SDS011;60396;47.550;18.828;2023-06-19T01:02:58;9.18;;;4.12;;
72406;SDS011;60396;47.550;18.828;2023-06-19T01:05:28;9.65;;;4.47;;
72406;SDS011;60396;47.550;18.828;2023-06-19T01:10:40;8.85;;;4.00;;
72406;SDS011;60396;47.550;18.828;2023-06-19T01:13:25;8.57;;;4.30;;
72406;SDS011;60396;47.550;18.828;2023-06-19T01:15:55;9.52;;;4.43;;
72406;SDS011;60396;47.550;18.828;2023-06-19T01:18:24;9.25;;;4.28;;
72406;SDS011;60396;47.550;18.828;2023-06-19T01:20:52;8.15;;;3.78;;
72406;SDS011;60396;47.550;18.828;2023-06-19T01:23:20;8.43;;;4.03;;
72406;SDS011;60396;47.550;18.828;2023-06-19T01:25:48;8.17;;;4.37;;
72406;SDS011;60396;47.550;18.828;2023-06-19T01:28:15;9.50;;;4.20;;
72406;SDS011;60396;47.550;18.828;2023-06-19T01:30:43;7.95;;;3.60;;
72406;SDS011;60396;47.550;18.828;2023-06-19T01:33:14;7.87;;;4.05;;
72406;SDS011;60396;47.550;18.828;2023-06-19T01:35:43;9.13;;;4.40;;
72406;SDS011;60396;47.550;18.828;2023-06-19T01:38:13;11.13;;;4.00;;
72406;SDS011;60396;47.550;18.828;2023-06-19T01:40:41;9.52;;;4.37;;
72406;SDS011;60396;47.550;18.828;2023-06-19T01:43:09;9.00;;;4.00;;
72406;SDS011;60396;47.550;18.828;2023-06-19T01:45:37;8.00;;;4.00;;
72406;SDS011;60396;47.550;18.828;2023-06-19T01:48:05;9.27;;;4.03;;
72406;SDS011;60396;47.550;18.828;2023-06-19T01:50:33;9.70;;;3.87;;
72406;SDS011;60396;47.550;18.828;2023-06-19T01:53:01;9.77;;;4.53;;
72406;SDS011;60396;47.550;18.828;2023-06-19T01:55:29;9.23;;;4.22;;
72406;SDS011;60396;47.550;18.828;2023-06-19T01:57:57;10.00;;;4.50;;
72406;SDS011;60396;47.550;18.828;2023-06-19T02:00:25;8.20;;;4.18;;
72406;SDS011;60396;47.550;18.828;2023-06-19T02:02:55;8.00;;;4.07;;
72406;SDS011;60396;47.550;18.828;2023-06-19T02:05:23;9.77;;;4.12;;
72406;SDS011;60396;47.550;18.828;2023-06-19T02:07:51;8.25;;;3.58;;
72406;SDS011;60396;47.550;18.828;2023-06-19T02:10:19;9.50;;;4.20;;
72406;SDS011;60396;47.550;18.828;2023-06-19T02:12:46;9.20;;;4.30;;
72406;SDS011;60396;47.550;18.828;2023-06-19T02:15:14;8.50;;;3.90;;
72406;SDS011;60396;47.550;18.828;2023-06-19T02:17:42;9.00;;;4.20;;
72406;SDS011;60396;47.550;18.828;2023-06-19T02:20:10;8.70;;;4.00;;
72406;SDS011;60396;47.550;18.828;2023-06-19T02:22:39;9.23;;;4.07;;
72406;SDS011;60396;47.550;18.828;2023-06-19T02:25:06;9.77;;;4.10;;
72406;SDS011;60396;47.550;18.828;2023-06-19T02:27:35;9.60;;;4.20;;
72406;SDS011;60396;47.550;18.828;2023-06-19T02:30:03;8.43;;;4.45;;
72406;SDS011;60396;47.550;18.828;2023-06-19T02:32:32;9.68;;;4.50;;
72406;SDS011;60396;47.550;18.828;2023-06-19T02:35:03;8.93;;;4.12;;
72406;SDS011;60396;47.550;18.828;2023-06-19T02:37:33;9.77;;;4.40;;
72406;SDS011;60396;47.550;18.828;2023-06-19T02:40:03;8.67;;;4.40;;
72406;SDS011;60396;47.550;18.828;2023-06-19T02:42:32;10.10;;;4.40;;
72406;SDS011;60396;47.550;18.828;2023-06-19T02:45:00;8.07;;;4.10;;
72406;SDS011;60396;47.550;18.828;2023-06-19T02:47:31;10.20;;;4.00;;
72406;SDS011;60396;47.550;18.828;2023-06-19T02:49:59;10.10;;;4.45;;
72406;SDS011;60396;47.550;18.828;2023-06-19T02:52:27;9.07;;;4.13;;
72406;SDS011;60396;47.550;18.828;2023-06-19T02:54:55;10.00;;;4.40;;
72406;SDS011;60396;47.550;18.828;2023-06-19T02:57:22;9.45;;;4.50;;
72406;SDS011;60396;47.550;18.828;2023-06-19T02:59:50;8.95;;;3.53;;
72406;SDS011;60396;47.550;18.828;2023-06-19T03:02:18;8.15;;;4.20;;
72406;SDS011;60396;47.550;18.828;2023-06-19T03:04:45;8.57;;;3.67;;
72406;SDS011;60396;47.550;18.828;2023-06-19T03:07:13;8.05;;;4.15;;
72406;SDS011;60396;47.550;18.828;2023-06-19T03:09:44;9.23;;;4.40;;
72406;SDS011;60396;47.550;18.828;2023-06-19T03:12:11;11.30;;;4.37;;
72406;SDS011;60396;47.550;18.828;2023-06-19T03:14:40;8.38;;;4.07;;
72406;SDS011;60396;47.550;18.828;2023-06-19T03:17:09;9.53;;;4.30;;
72406;SDS011;60396;47.550;18.828;2023-06-19T03:19:37;8.70;;;4.03;;
72406;SDS011;60396;47.550;18.828;2023-06-19T03:22:04;10.15;;;3.72;;
72406;SDS011;60396;47.550;18.828;2023-06-19T03:24:32;10.40;;;4.53;;
72406;SDS011;60396;47.550;18.828;2023-06-19T03:27:01;9.60;;;4.72;;
72406;SDS011;60396;47.550;18.828;2023-06-19T03:29:30;10.33;;;4.37;;
72406;SDS011;60396;47.550;18.828;2023-06-19T03:31:58;7.93;;;4.22;;
72406;SDS011;60396;47.550;18.828;2023-06-19T03:34:26;9.27;;;4.03;;
72406;SDS011;60396;47.550;18.828;2023-06-19T03:36:54;8.10;;;4.15;;
72406;SDS011;60396;47.550;18.828;2023-06-19T03:39:22;8.15;;;4.00;;
72406;SDS011;60396;47.550;18.828;2023-06-19T03:41:50;10.60;;;4.60;;
72406;SDS011;60396;47.550;18.828;2023-06-19T03:44:17;9.93;;;4.43;;
72406;SDS011;60396;47.550;18.828;2023-06-19T03:46:45;8.93;;;4.15;;
72406;SDS011;60396;47.550;18.828;2023-06-19T03:49:14;8.85;;;4.30;;
72406;SDS011;60396;47.550;18.828;2023-06-19T03:51:42;8.75;;;4.47;;
72406;SDS011;60396;47.550;18.828;2023-06-19T03:54:09;9.83;;;4.33;;
72406;SDS011;60396;47.550;18.828;2023-06-19T03:56:37;11.05;;;4.20;;
72406;SDS011;60396;47.550;18.828;2023-06-19T03:59:05;10.43;;;4.35;;
72406;SDS011;60396;47.550;18.828;2023-06-19T04:01:33;9.63;;;4.75;;
72406;SDS011;60396;47.550;18.828;2023-06-19T04:04:01;9.00;;;4.55;;
72406;SDS011;60396;47.550;18.828;2023-06-19T04:06:28;8.63;;;4.57;;
72406;SDS011;60396;47.550;18.828;2023-06-19T04:08:56;9.80;;;4.40;;
72406;SDS011;60396;47.550;18.828;2023-06-19T04:11:24;8.32;;;4.18;;
72406;SDS011;60396;47.550;18.828;2023-06-19T04:13:51;9.73;;;4.25;;
72406;SDS011;60396;47.550;18.828;2023-06-19T04:16:19;8.27;;;4.35;;
72406;SDS011;60396;47.550;18.828;2023-06-19T04:18:47;13.90;;;4.90;;
72406;SDS011;60396;47.550;18.828;2023-06-19T04:21:15;10.18;;;4.72;;
72406;SDS011;60396;47.550;18.828;2023-06-19T04:23:43;10.43;;;4.47;;
72406;SDS011;60396;47.550;18.828;2023-06-19T04:26:11;8.52;;;4.28;;
72406;SDS011;60396;47.550;18.828;2023-06-19T04:28:38;8.50;;;4.00;;
72406;SDS011;60396;47.550;18.828;2023-06-19T04:31:06;10.77;;;4.20;;
72406;SDS011;60396;47.550;18.828;2023-06-19T04:33:34;9.55;;;5.10;;
72406;SDS011;60396;47.550;18.828;2023-06-19T04:36:02;9.20;;;4.53;;
72406;SDS011;60396;47.550;18.828;2023-06-19T04:38:30;12.43;;;4.85;;
72406;SDS011;60396;47.550;18.828;2023-06-19T04:40:58;11.50;;;4.68;;
72406;SDS011;60396;47.550;18.828;2023-06-19T04:43:25;11.30;;;5.03;;
72406;SDS011;60396;47.550;18.828;2023-06-19T04:45:53;11.30;;;5.22;;
72406;SDS011;60396;47.550;18.828;2023-06-19T04:48:21;10.57;;;4.82;;
72406;SDS011;60396;47.550;18.828;2023-06-19T04:50:53;14.55;;;5.35;;
72406;SDS011;60396;47.550;18.828;2023-06-19T04:53:23;9.73;;;4.95;;
72406;SDS011;60396;47.550;18.828;2023-06-19T04:55:51;13.87;;;5.00;;
72406;SDS011;60396;47.550;18.828;2023-06-19T04:58:21;9.82;;;5.20;;
72406;SDS011;60396;47.550;18.828;2023-06-19T05:00:49;14.05;;;5.78;;
72406;SDS011;60396;47.550;18.828;2023-06-19T05:03:18;10.05;;;5.37;;
72406;SDS011;60396;47.550;18.828;2023-06-19T05:05:46;10.38;;;5.70;;
72406;SDS011;60396;47.550;18.828;2023-06-19T05:08:14;11.13;;;5.40;;
72406;SDS011;60396;47.550;18.828;2023-06-19T05:10:42;10.77;;;4.90;;
72406;SDS011;60396;47.550;18.828;2023-06-19T05:13:12;12.20;;;5.10;;
72406;SDS011;60396;47.550;18.828;2023-06-19T05:15:40;10.10;;;4.85;;
72406;SDS011;60396;47.550;18.828;2023-06-19T05:18:08;10.02;;;5.85;;
72406;SDS011;60396;47.550;18.828;2023-06-19T05:20:35;9.20;;;5.03;;
72406;SDS011;60396;47.550;18.828;2023-06-19T05:23:03;13.48;;;5.18;;
72406;SDS011;60396;47.550;18.828;2023-06-19T05:25:31;15.25;;;5.80;;
72406;SDS011;60396;47.550;18.828;2023-06-19T05:27:58;15.07;;;5.57;;
72406;SDS011;60396;47.550;18.828;2023-06-19T05:30:26;10.10;;;4.53;;
72406;SDS011;60396;47.550;18.828;2023-06-19T05:32:53;9.00;;;4.83;;
72406;SDS011;60396;47.550;18.828;2023-06-19T05:35:21;14.10;;;5.30;;
72406;SDS011;60396;47.550;18.828;2023-06-19T05:37:49;11.45;;;5.10;;
72406;SDS011;60396;47.550;18.828;2023-06-19T05:40:16;15.55;;;4.78;;
72406;SDS011;60396;47.550;18.828;2023-06-19T05:42:44;10.90;;;5.00;;
72406;SDS011;60396;47.550;18.828;2023-06-19T05:45:12;10.40;;;5.00;;
72406;SDS011;60396;47.550;18.828;2023-06-19T05:47:40;12.43;;;5.03;;
72406;SDS011;60396;47.550;18.828;2023-06-19T05:50:07;11.60;;;4.93;;
72406;SDS011;60396;47.550;18.828;2023-06-19T05:52:35;11.27;;;5.03;;
72406;SDS011;60396;47.550;18.828;2023-06-19T05:55:03;10.68;;;4.72;;
72406;SDS011;60396;47.550;18.828;2023-06-19T05:57:31;13.30;;;4.60;;
72406;SDS011;60396;47.550;18.828;2023-06-19T05:59:59;9.65;;;4.22;;
72406;SDS011;60396;47.550;18.828;2023-06-19T06:02:27;12.37;;;4.35;;
72406;SDS011;60396;47.550;18.828;2023-06-19T06:04:56;10.75;;;4.97;;
72406;SDS011;60396;47.550;18.828;2023-06-19T06:07:23;15.63;;;5.43;;
72406;SDS011;60396;47.550;18.828;2023-06-19T06:09:51;9.03;;;4.43;;
72406;SDS011;60396;47.550;18.828;2023-06-19T06:12:19;8.55;;;3.67;;
72406;SDS011;60396;47.550;18.828;2023-06-19T06:14:47;11.00;;;4.45;;
72406;SDS011;60396;47.550;18.828;2023-06-19T06:17:14;9.52;;;4.03;;
72406;SDS011;60396;47.550;18.828;2023-06-19T06:19:42;11.43;;;5.10;;
72406;SDS011;60396;47.550;18.828;2023-06-19T06:22:10;10.50;;;4.30;;
72406;SDS011;60396;47.550;18.828;2023-06-19T06:24:37;8.48;;;4.40;;
72406;SDS011;60396;47.550;18.828;2023-06-19T06:27:06;11.27;;;4.75;;
72406;SDS011;60396;47.550;18.828;2023-06-19T06:29:34;8.55;;;4.60;;
72406;SDS011;60396;47.550;18.828;2023-06-19T06:32:04;10.68;;;3.92;;
72406;SDS011;60396;47.550;18.828;2023-06-19T06:34:33;9.33;;;4.60;;
72406;SDS011;60396;47.550;18.828;2023-06-19T06:37:01;9.95;;;4.47;;
72406;SDS011;60396;47.550;18.828;2023-06-19T06:39:33;10.60;;;4.90;;
72406;SDS011;60396;47.550;18.828;2023-06-19T06:42:01;8.63;;;4.30;;
72406;SDS011;60396;47.550;18.828;2023-06-19T06:44:29;11.38;;;4.30;;
72406;SDS011;60396;47.550;18.828;2023-06-19T06:46:57;8.17;;;4.20;;
72406;SDS011;60396;47.550;18.828;2023-06-19T06:49:24;10.50;;;4.50;;
72406;SDS011;60396;47.550;18.828;2023-06-19T06:51:52;9.68;;;4.03;;
72406;SDS011;60396;47.550;18.828;2023-06-19T06:54:24;9.32;;;4.90;;
72406;SDS011;60396;47.550;18.828;2023-06-19T06:56:52;9.48;;;4.65;;
72406;SDS011;60396;47.550;18.828;2023-06-19T06:59:24;8.97;;;4.43;;
72406;SDS011;60396;47.550;18.828;2023-06-19T07:01:52;10.93;;;4.32;;
72406;SDS011;60396;47.550;18.828;2023-06-19T07:04:21;10.43;;;4.30;;
72406;SDS011;60396;47.550;18.828;2023-06-19T07:06:49;9.68;;;4.05;;
72406;SDS011;60396;47.550;18.828;2023-06-19T07:09:17;9.30;;;3.90;;
72406;SDS011;60396;47.550;18.828;2023-06-19T07:11:45;11.13;;;3.90;;
72406;SDS011;60396;47.550;18.828;2023-06-19T07:14:13;10.32;;;4.62;;
72406;SDS011;60396;47.550;18.828;2023-06-19T07:16:40;8.90;;;4.03;;
72406;SDS011;60396;47.550;18.828;2023-06-19T07:19:08;8.77;;;3.83;;
72406;SDS011;60396;47.550;18.828;2023-06-19T07:21:36;8.98;;;3.97;;
72406;SDS011;60396;47.550;18.828;2023-06-19T07:24:04;13.13;;;4.10;;
72406;SDS011;60396;47.550;18.828;2023-06-19T07:26:32;9.27;;;4.07;;
72406;SDS011;60396;47.550;18.828;2023-06-19T07:29:00;9.45;;;4.10;;
72406;SDS011;60396;47.550;18.828;2023-06-19T07:31:28;7.47;;;3.62;;
72406;SDS011;60396;47.550;18.828;2023-06-19T07:33:55;10.18;;;4.05;;
72406;SDS011;60396;47.550;18.828;2023-06-19T07:36:23;8.67;;;3.57;;
72406;SDS011;60396;47.550;18.828;2023-06-19T07:38:51;9.40;;;3.80;;
72406;SDS011;60396;47.550;18.828;2023-06-19T07:41:19;12.93;;;4.10;;
72406;SDS011;60396;47.550;18.828;2023-06-19T07:43:47;9.52;;;4.00;;
72406;SDS011;60396;47.550;18.828;2023-06-19T07:46:14;9.52;;;4.12;;
72406;SDS011;60396;47.550;18.828;2023-06-19T07:48:42;8.87;;;4.23;;
72406;SDS011;60396;47.550;18.828;2023-06-19T07:51:10;9.52;;;4.20;;
72406;SDS011;60396;47.550;18.828;2023-06-19T07:53:38;8.32;;;3.72;;
72406;SDS011;60396;47.550;18.828;2023-06-19T07:56:06;11.00;;;4.25;;
72406;SDS011;60396;47.550;18.828;2023-06-19T07:58:38;9.35;;;4.30;;
72406;SDS011;60396;47.550;18.828;2023-06-19T08:01:06;8.67;;;3.97;;
72406;SDS011;60396;47.550;18.828;2023-06-19T08:03:34;8.27;;;4.40;;
72406;SDS011;60396;47.550;18.828;2023-06-19T08:06:02;7.43;;;3.85;;
72406;SDS011;60396;47.550;18.828;2023-06-19T08:08:29;9.93;;;4.10;;
72406;SDS011;60396;47.550;18.828;2023-06-19T08:10:57;12.75;;;4.47;;
72406;SDS011;60396;47.550;18.828;2023-06-19T08:13:25;9.63;;;4.03;;
72406;SDS011;60396;47.550;18.828;2023-06-19T08:15:53;12.65;;;4.15;;
72406;SDS011;60396;47.550;18.828;2023-06-19T08:18:20;9.10;;;4.10;;
72406;SDS011;60396;47.550;18.828;2023-06-19T08:20:48;12.25;;;4.20;;
72406;SDS011;60396;47.550;18.828;2023-06-19T08:23:16;12.32;;;4.62;;
72406;SDS011;60396;47.550;18.828;2023-06-19T08:25:44;17.07;;;4.47;;
72406;SDS011;60396;47.550;18.828;2023-06-19T08:28:11;9.75;;;4.55;;
72406;SDS011;60396;47.550;18.828;2023-06-19T08:30:39;8.23;;;4.20;;
72406;SDS011;60396;47.550;18.828;2023-06-19T08:33:07;10.70;;;4.37;;
72406;SDS011;60396;47.550;18.828;2023-06-19T08:35:35;11.23;;;4.75;;
72406;SDS011;60396;47.550;18.828;2023-06-19T08:38:03;10.53;;;4.43;;
72406;SDS011;60396;47.550;18.828;2023-06-19T08:40:30;11.55;;;4.50;;
72406;SDS011;60396;47.550;18.828;2023-06-19T08:42:58;10.55;;;4.65;;
72406;SDS011;60396;47.550;18.828;2023-06-19T08:45:26;10.57;;;4.70;;
72406;SDS011;60396;47.550;18.828;2023-06-19T08:47:58;10.05;;;4.78;;
72406;SDS011;60396;47.550;18.828;2023-06-19T08:50:27;9.10;;;4.50;;
72406;SDS011;60396;47.550;18.828;2023-06-19T08:52:56;11.80;;;4.40;;
72406;SDS011;60396;47.550;18.828;2023-06-19T08:55:24;9.85;;;4.72;;
72406;SDS011;60396;47.550;18.828;2023-06-19T08:57:52;11.60;;;5.07;;
72406;SDS011;60396;47.550;18.828;2023-06-19T09:00:23;12.48;;;4.80;;
72406;SDS011;60396;47.550;18.828;2023-06-19T09:02:59;9.10;;;4.97;;
72406;SDS011;60396;47.550;18.828;2023-06-19T09:05:41;10.93;;;5.05;;
72406;SDS011;60396;47.550;18.828;2023-06-19T09:08:18;10.88;;;5.00;;
72406;SDS011;60396;47.550;18.828;2023-06-19T09:13:30;10.00;;;4.90;;
72406;SDS011;60396;47.550;18.828;2023-06-19T09:16:00;8.47;;;4.77;;
72406;SDS011;60396;47.550;18.828;2023-06-19T09:18:42;9.93;;;5.03;;
72406;SDS011;60396;47.550;18.828;2023-06-19T09:21:18;11.15;;;4.50;;
72406;SDS011;60396;47.550;18.828;2023-06-19T09:23:46;7.93;;;3.95;;
72406;SDS011;60396;47.550;18.828;2023-06-19T09:26:15;13.32;;;5.53;;
72406;SDS011;60396;47.550;18.828;2023-06-19T09:28:43;10.10;;;5.23;;
72406;SDS011;60396;47.550;18.828;2023-06-19T09:31:11;10.93;;;4.32;;
72406;SDS011;60396;47.550;18.828;2023-06-19T09:33:40;14.50;;;4.62;;
72406;SDS011;60396;47.550;18.828;2023-06-19T09:36:07;13.07;;;4.57;;
72406;SDS011;60396;47.550;18.828;2023-06-19T09:38:36;10.73;;;5.03;;
72406;SDS011;60396;47.550;18.828;2023-06-19T09:41:08;9.83;;;4.40;;
72406;SDS011;60396;47.550;18.828;2023-06-19T09:43:37;8.43;;;4.65;;
72406;SDS011;60396;47.550;18.828;2023-06-19T09:46:06;9.50;;;4.57;;
72406;SDS011;60396;47.550;18.828;2023-06-19T09:48:35;10.98;;;4.78;;
72406;SDS011;60396;47.550;18.828;2023-06-19T09:54:09;10.37;;;4.33;;
72406;SDS011;60396;47.550;18.828;2023-06-19T09:56:36;8.73;;;4.15;;
72406;SDS011;60396;47.550;18.828;2023-06-19T09:59:05;8.40;;;4.32;;
72406;SDS011;60396;47.550;18.828;2023-06-19T10:01:36;11.50;;;5.10;;
72406;SDS011;60396;47.550;18.828;2023-06-19T10:04:06;12.20;;;4.62;;
72406;SDS011;60396;47.550;18.828;2023-06-19T10:06:44;10.67;;;4.40;;
72406;SDS011;60396;47.550;18.828;2023-06-19T10:09:17;15.20;;;4.95;;
72406;SDS011;60396;47.550;18.828;2023-06-19T10:11:48;11.48;;;4.95;;
72406;SDS011;60396;47.550;18.828;2023-06-19T10:14:20;10.23;;;4.75;;
72406;SDS011;60396;47.550;18.828;2023-06-19T10:16:48;11.75;;;3.97;;
72406;SDS011;60396;47.550;18.828;2023-06-19T10:19:18;9.97;;;4.43;;
72406;SDS011;60396;47.550;18.828;2023-06-19T10:21:48;9.85;;;3.95;;
72406;SDS011;60396;47.550;18.828;2023-06-19T10:24:18;10.68;;;4.35;;
72406;SDS011;60396;47.550;18.828;2023-06-19T10:26:58;9.32;;;4.43;;
72406;SDS011;60396;47.550;18.828;2023-06-19T10:29:37;12.23;;;4.45;;
72406;SDS011;60396;47.550;18.828;2023-06-19T10:32:06;12.10;;;4.40;;
72406;SDS011;60396;47.550;18.828;2023-06-19T10:34:34;12.32;;;4.30;;
72406;SDS011;60396;47.550;18.828;2023-06-19T10:37:02;13.10;;;3.90;;
72406;SDS011;60396;47.550;18.828;2023-06-19T10:39:31;10.50;;;4.45;;
72406;SDS011;60396;47.550;18.828;2023-06-19T10:41:59;12.00;;;4.72;;
72406;SDS011;60396;47.550;18.828;2023-06-19T10:44:27;10.47;;;4.63;;
72406;SDS011;60396;47.550;18.828;2023-06-19T10:46:55;13.27;;;4.30;;
72406;SDS011;60396;47.550;18.828;2023-06-19T10:49:22;8.77;;;4.40;;
72406;SDS011;60396;47.550;18.828;2023-06-19T10:51:51;8.02;;;4.18;;
72406;SDS011;60396;47.550;18.828;2023-06-19T10:54:22;8.52;;;4.37;;
72406;SDS011;60396;47.550;18.828;2023-06-19T10:56:49;9.03;;;4.37;;
72406;SDS011;60396;47.550;18.828;2023-06-19T10:59:18;8.27;;;4.22;;
72406;SDS011;60396;47.550;18.828;2023-06-19T11:01:46;8.60;;;4.70;;
72406;SDS011;60396;47.550;18.828;2023-06-19T11:04:15;9.73;;;4.70;;
72406;SDS011;60396;47.550;18.828;2023-06-19T11:06:43;9.68;;;4.20;;
72406;SDS011;60396;47.550;18.828;2023-06-19T11:09:12;8.20;;;4.27;;
72406;SDS011;60396;47.550;18.828;2023-06-19T11:11:44;10.27;;;4.65;;
72406;SDS011;60396;47.550;18.828;2023-06-19T11:14:13;9.43;;;4.82;;
72406;SDS011;60396;47.550;18.828;2023-06-19T11:16:44;8.55;;;4.65;;
72406;SDS011;60396;47.550;18.828;2023-06-19T11:19:17;9.90;;;4.68;;
72406;SDS011;60396;47.550;18.828;2023-06-19T11:21:47;10.30;;;4.33;;
72406;SDS011;60396;47.550;18.828;2023-06-19T11:24:16;8.73;;;4.45;;
72406;SDS011;60396;47.550;18.828;2023-06-19T11:26:45;8.75;;;4.60;;
72406;SDS011;60396;47.550;18.828;2023-06-19T11:31:49;9.25;;;4.87;;
72406;SDS011;60396;47.550;18.828;2023-06-19T11:34:18;11.47;;;4.77;;
72406;SDS011;60396;47.550;18.828;2023-06-19T11:36:49;10.95;;;4.65;;
72406;SDS011;60396;47.550;18.828;2023-06-19T11:39:17;9.18;;;5.03;;
72406;SDS011;60396;47.550;18.828;2023-06-19T11:41:46;9.25;;;4.55;;
72406;SDS011;60396;47.550;18.828;2023-06-19T11:44:14;10.60;;;4.78;;
72406;SDS011;60396;47.550;18.828;2023-06-19T11:46:43;12.10;;;4.97;;
72406;SDS011;60396;47.550;18.828;2023-06-19T11:51:45;9.20;;;4.90;;
72406;SDS011;60396;47.550;18.828;2023-06-19T11:54:14;10.38;;;5.20;;
72406;SDS011;60396;47.550;18.828;2023-06-19T11:56:42;9.52;;;4.60;;
72406;SDS011;60396;47.550;18.828;2023-06-19T11:59:09;12.47;;;4.97;;
72406;SDS011;60396;47.550;18.828;2023-06-19T12:01:37;7.82;;;4.22;;
72406;SDS011;60396;47.550;18.828;2023-06-19T12:04:06;8.68;;;4.18;;
72406;SDS011;60396;47.550;18.828;2023-06-19T12:06:34;8.65;;;4.30;;
72406;SDS011;60396;47.550;18.828;2023-06-19T12:09:05;12.25;;;5.07;;
72406;SDS011;60396;47.550;18.828;2023-06-19T12:11:33;9.87;;;5.20;;
72406;SDS011;60396;47.550;18.828;2023-06-19T12:14:01;11.88;;;4.57;;
72406;SDS011;60396;47.550;18.828;2023-06-19T12:16:29;12.20;;;5.80;;
72406;SDS011;60396;47.550;18.828;2023-06-19T12:18:57;8.98;;;4.50;;
72406;SDS011;60396;47.550;18.828;2023-06-19T12:21:25;10.82;;;5.07;;
72406;SDS011;60396;47.550;18.828;2023-06-19T12:24:05;12.07;;;4.73;;
72406;SDS011;60396;47.550;18.828;2023-06-19T12:26:36;12.07;;;5.25;;
72406;SDS011;60396;47.550;18.828;2023-06-19T12:29:05;9.57;;;5.35;;
72406;SDS011;60396;47.550;18.828;2023-06-19T12:31:34;9.13;;;5.18;;
72406;SDS011;60396;47.550;18.828;2023-06-19T12:34:03;8.30;;;4.35;;
72406;SDS011;60396;47.550;18.828;2023-06-19T12:36:53;11.43;;;4.43;;
72406;SDS011;60396;47.550;18.828;2023-06-19T12:39:21;8.55;;;5.00;;
72406;SDS011;60396;47.550;18.828;2023-06-19T12:41:49;10.95;;;4.80;;
72406;SDS011;60396;47.550;18.828;2023-06-19T12:44:16;8.07;;;4.37;;
72406;SDS011;60396;47.550;18.828;2023-06-19T12:46:44;10.52;;;5.30;;
72406;SDS011;60396;47.550;18.828;2023-06-19T12:49:12;13.77;;;4.53;;
72406;SDS011;60396;47.550;18.828;2023-06-19T12:51:40;11.65;;;4.82;;
72406;SDS011;60396;47.550;18.828;2023-06-19T12:54:07;10.50;;;4.12;;
72406;SDS011;60396;47.550;18.828;2023-06-19T12:56:35;10.10;;;5.43;;
72406;SDS011;60396;47.550;18.828;2023-06-19T12:59:05;12.40;;;5.62;;
72406;SDS011;60396;47.550;18.828;2023-06-19T13:01:33;8.63;;;4.50;;
72406;SDS011;60396;47.550;18.828;2023-06-19T13:04:01;9.40;;;5.35;;
72406;SDS011;60396;47.550;18.828;2023-06-19T13:06:29;11.15;;;4.95;;
72406;SDS011;60396;47.550;18.828;2023-06-19T13:08:56;8.77;;;4.82;;
72406;SDS011;60396;47.550;18.828;2023-06-19T13:11:24;8.52;;;5.18;;
72406;SDS011;60396;47.550;18.828;2023-06-19T13:13:52;10.37;;;6.00;;
72406;SDS011;60396;47.550;18.828;2023-06-19T13:16:19;11.55;;;5.10;;
72406;SDS011;60396;47.550;18.828;2023-06-19T13:19:07;9.98;;;5.43;;
72406;SDS011;60396;47.550;18.828;2023-06-19T13:21:35;10.80;;;4.75;;
72406;SDS011;60396;47.550;18.828;2023-06-19T13:24:03;11.30;;;4.80;;
72406;SDS011;60396;47.550;18.828;2023-06-19T13:26:31;12.03;;;4.83;;
72406;SDS011;60396;47.550;18.828;2023-06-19T13:28:58;10.50;;;5.45;;
72406;SDS011;60396;47.550;18.828;2023-06-19T13:31:28;10.57;;;4.93;;
72406;SDS011;60396;47.550;18.828;2023-06-19T13:33:56;9.23;;;4.82;;
72406;SDS011;60396;47.550;18.828;2023-06-19T13:36:23;9.13;;;4.95;;
72406;SDS011;60396;47.550;18.828;2023-06-19T13:38:53;10.20;;;4.40;;
72406;SDS011;60396;47.550;18.828;2023-06-19T13:41:21;9.43;;;5.10;;
72406;SDS011;60396;47.550;18.828;2023-06-19T13:43:52;9.07;;;4.90;;
72406;SDS011;60396;47.550;18.828;2023-06-19T13:46:21;11.75;;;5.03;;
72406;SDS011;60396;47.550;18.828;2023-06-19T13:48:49;9.98;;;5.37;;
72406;SDS011;60396;47.550;18.828;2023-06-19T13:51:21;10.30;;;4.90;;
72406;SDS011;60396;47.550;18.828;2023-06-19T13:53:50;10.25;;;5.37;;
72406;SDS011;60396;47.550;18.828;2023-06-19T13:56:18;10.85;;;5.03;;
72406;SDS011;60396;47.550;18.828;2023-06-19T13:58:46;8.50;;;4.97;;
72406;SDS011;60396;47.550;18.828;2023-06-19T14:01:14;9.18;;;4.97;;
72406;SDS011;60396;47.550;18.828;2023-06-19T14:03:42;13.27;;;5.00;;
72406;SDS011;60396;47.550;18.828;2023-06-19T14:06:10;9.20;;;5.10;;
72406;SDS011;60396;47.550;18.828;2023-06-19T14:08:39;16.35;;;4.93;;
72406;SDS011;60396;47.550;18.828;2023-06-19T14:11:07;11.98;;;5.30;;
72406;SDS011;60396;47.550;18.828;2023-06-19T14:13:35;11.73;;;5.62;;
72406;SDS011;60396;47.550;18.828;2023-06-19T14:16:03;10.33;;;5.57;;
72406;SDS011;60396;47.550;18.828;2023-06-19T14:18:31;9.57;;;4.60;;
72406;SDS011;60396;47.550;18.828;2023-06-19T14:20:59;11.40;;;5.25;;
72406;SDS011;60396;47.550;18.828;2023-06-19T14:23:26;11.05;;;4.62;;
72406;SDS011;60396;47.550;18.828;2023-06-19T14:25:54;9.40;;;4.87;;
72406;SDS011;60396;47.550;18.828;2023-06-19T14:28:22;10.70;;;4.47;;
72406;SDS011;60396;47.550;18.828;2023-06-19T14:30:50;10.57;;;5.40;;
72406;SDS011;60396;47.550;18.828;2023-06-19T14:33:18;10.38;;;5.65;;
72406;SDS011;60396;47.550;18.828;2023-06-19T14:35:45;11.10;;;5.62;;
72406;SDS011;60396;47.550;18.828;2023-06-19T14:38:13;10.48;;;5.45;;
72406;SDS011;60396;47.550;18.828;2023-06-19T14:40:43;10.90;;;4.87;;
72406;SDS011;60396;47.550;18.828;2023-06-19T14:43:11;14.95;;;5.12;;
72406;SDS011;60396;47.550;18.828;2023-06-19T14:45:38;8.65;;;4.95;;
72406;SDS011;60396;47.550;18.828;2023-06-19T14:48:07;10.38;;;4.75;;
72406;SDS011;60396;47.550;18.828;2023-06-19T14:50:35;8.70;;;5.00;;